createdAt,value
2023-04-30T00:01:42.169Z,10.77
2023-04-30T00:06:44.755Z,9.27
2023-04-30T00:11:48.518Z,10.60
2023-04-30T00:16:51.043Z,9.83
2023-04-30T00:21:55.103Z,9.07
2023-04-30T00:26:58.579Z,9.60
2023-04-30T00:32:01.054Z,10.60
2023-04-30T00:37:03.994Z,10.53
2023-04-30T00:42:06.617Z,11.47
2023-04-30T00:47:08.950Z,10.33
2023-04-30T00:52:11.383Z,10.83
2023-04-30T00:57:16.531Z,10.47
2023-04-30T01:02:19.113Z,11.30
2023-04-30T01:07:22.071Z,13.63
2023-04-30T01:12:33.776Z,10.37
2023-04-30T01:17:41.966Z,11.20
2023-04-30T01:22:55.167Z,11.50
2023-04-30T01:28:10.873Z,10.33
2023-04-30T01:33:14.191Z,10.23
2023-04-30T01:38:24.714Z,11.87
2023-04-30T01:43:34.854Z,11.80
2023-04-30T01:49:01.274Z,10.60
2023-04-30T01:54:11.756Z,11.43
2023-04-30T01:59:15.076Z,10.50
2023-04-30T02:04:17.527Z,11.57
2023-04-30T02:09:19.960Z,11.43
2023-04-30T02:14:22.374Z,12.57
2023-04-30T02:19:48.399Z,10.33
2023-04-30T02:24:50.876Z,9.80
2023-04-30T02:29:54.137Z,9.77
2023-04-30T02:34:57.028Z,10.63
2023-04-30T02:39:59.500Z,9.17
2023-04-30T02:45:02.252Z,9.07
2023-04-30T02:50:07.488Z,8.83
2023-04-30T02:55:10.094Z,9.77
2023-04-30T03:00:13.249Z,10.73
2023-04-30T03:05:16.225Z,10.17
2023-04-30T03:10:19.468Z,9.20
2023-04-30T03:15:22.543Z,9.23
2023-04-30T03:20:24.968Z,10.80
2023-04-30T03:25:27.389Z,11.87
2023-04-30T03:30:29.823Z,10.57
2023-04-30T03:35:32.732Z,12.40
2023-04-30T03:40:35.604Z,10.63
2023-04-30T03:45:38.314Z,12.13
2023-04-30T03:50:40.880Z,10.90
2023-04-30T03:55:43.524Z,10.90
2023-04-30T04:00:48.638Z,11.53
2023-04-30T04:05:51.049Z,12.03
2023-04-30T04:10:53.728Z,10.57
2023-04-30T04:15:56.140Z,10.97
2023-04-30T04:20:58.623Z,10.63
2023-04-30T04:26:01.956Z,11.40
2023-04-30T04:31:04.626Z,10.20
2023-04-30T04:36:07.962Z,10.53
2023-04-30T04:41:10.339Z,10.50
2023-04-30T04:46:14.475Z,9.60
2023-04-30T04:51:16.920Z,9.83
2023-04-30T04:56:19.309Z,10.83
2023-04-30T05:01:22.153Z,8.97
2023-04-30T05:06:24.578Z,8.50
2023-04-30T05:11:29.305Z,9.00
2023-04-30T05:16:32.120Z,8.13
2023-04-30T05:21:34.678Z,8.00
2023-04-30T05:26:37.110Z,8.23
2023-04-30T05:31:39.555Z,7.03
2023-04-30T05:36:43.188Z,6.07
2023-04-30T05:41:49.119Z,6.03
2023-04-30T05:46:51.707Z,6.83
2023-04-30T05:51:54.091Z,7.27
2023-04-30T05:56:56.477Z,7.23
2023-04-30T06:01:58.934Z,7.33
2023-04-30T06:07:01.564Z,7.40
2023-04-30T06:12:04.437Z,7.23
2023-04-30T06:17:06.884Z,4.73
2023-04-30T06:22:09.489Z,4.47
2023-04-30T06:27:11.810Z,4.50
2023-04-30T06:32:14.279Z,4.57
2023-04-30T06:37:16.685Z,4.63
2023-04-30T06:42:19.032Z,4.10
2023-04-30T06:47:21.330Z,5.00
2023-04-30T06:52:23.683Z,3.93
2023-04-30T06:57:26.154Z,3.83
2023-04-30T07:02:28.612Z,3.97
2023-04-30T07:07:31.660Z,3.53
2023-04-30T07:12:34.385Z,4.73
2023-04-30T07:17:37.548Z,3.40
2023-04-30T07:22:39.973Z,4.07
2023-04-30T07:27:42.635Z,3.77
2023-04-30T07:32:45.501Z,3.30
2023-04-30T07:37:48.310Z,5.07
2023-04-30T07:42:50.904Z,4.10
2023-04-30T07:47:53.580Z,4.17
2023-04-30T07:52:56.149Z,3.83
2023-04-30T07:57:59.263Z,2.67
2023-04-30T08:03:01.916Z,3.00
2023-04-30T08:08:04.705Z,1.83
2023-04-30T08:13:07.217Z,2.47
2023-04-30T08:18:10.163Z,2.30
2023-04-30T08:23:12.626Z,2.97
2023-04-30T08:28:15.050Z,2.30
2023-04-30T08:33:18.149Z,1.70
2023-04-30T08:38:20.700Z,2.33
2023-04-30T08:43:23.932Z,2.73
2023-04-30T08:48:27.099Z,1.80
2023-04-30T08:53:36.096Z,1.80
2023-04-30T08:58:38.560Z,1.47
2023-04-30T09:03:41.107Z,2.23
2023-04-30T09:08:48.521Z,2.27
2023-04-30T09:13:55.108Z,1.97
2023-04-30T09:18:57.833Z,1.73
2023-04-30T09:24:02.483Z,1.40
2023-04-30T09:29:08.404Z,1.33
2023-04-30T09:34:11.320Z,2.77
2023-04-30T09:39:17.907Z,1.37
2023-04-30T09:44:30.172Z,1.70
2023-04-30T09:49:32.823Z,1.77
2023-04-30T09:54:36.084Z,1.87
2023-04-30T09:59:40.092Z,1.40
2023-04-30T10:04:44.068Z,1.63
2023-04-30T10:10:25.344Z,1.40
2023-04-30T10:15:36.009Z,1.73
2023-04-30T10:20:39.525Z,2.03
2023-04-30T10:25:41.897Z,1.20
2023-04-30T10:30:44.609Z,1.40
2023-04-30T10:35:55.962Z,1.40
2023-04-30T10:41:02.777Z,1.77
2023-04-30T10:46:05.295Z,1.40
2023-04-30T10:51:10.263Z,2.23
2023-04-30T10:56:13.628Z,1.50
2023-04-30T11:01:17.886Z,1.60
2023-04-30T11:06:22.043Z,1.30
2023-04-30T11:11:24.502Z,1.30
2023-04-30T11:16:49.705Z,1.63
2023-04-30T11:22:04.259Z,1.70
2023-04-30T11:27:06.775Z,1.40
2023-04-30T11:32:09.741Z,1.50
2023-04-30T11:37:20.935Z,1.50
2023-04-30T11:42:23.399Z,2.13
2023-04-30T11:47:25.871Z,1.27
2023-04-30T11:52:28.830Z,1.67
2023-04-30T11:57:36.085Z,1.73
2023-04-30T12:02:39.808Z,2.40
2023-04-30T12:07:47.521Z,2.00
2023-04-30T12:12:53.008Z,2.10
2023-04-30T12:17:57.938Z,1.50
2023-04-30T12:23:01.445Z,1.93
2023-04-30T12:28:03.880Z,1.80
2023-04-30T12:33:06.542Z,1.77
2023-04-30T12:38:09.995Z,2.37
2023-04-30T12:43:16.182Z,2.30
2023-04-30T12:48:20.275Z,7.97
2023-04-30T12:53:24.108Z,5.97
2023-04-30T12:58:31.540Z,5.17
2023-04-30T13:03:33.999Z,8.97
2023-04-30T13:08:45.610Z,3.20
2023-04-30T13:13:52.553Z,3.30
2023-04-30T13:18:56.495Z,9.00
2023-04-30T13:29:02.063Z,1.90
2023-04-30T13:34:04.509Z,1.90
2023-04-30T13:39:07.185Z,3.13
2023-04-30T13:44:09.813Z,2.33
2023-04-30T13:49:12.259Z,4.27
2023-04-30T13:54:14.685Z,12.43
2023-04-30T13:59:17.144Z,4.27
2023-04-30T14:04:20.136Z,4.03
2023-04-30T14:09:23.106Z,3.70
2023-04-30T14:14:26.713Z,3.27
2023-04-30T14:19:29.299Z,2.60
2023-04-30T14:24:32.034Z,3.10
2023-04-30T14:29:34.465Z,2.60
2023-04-30T14:34:37.915Z,2.63
2023-04-30T14:39:41.885Z,7.90
2023-04-30T14:44:44.576Z,5.30
2023-04-30T14:49:47.824Z,8.03
2023-04-30T14:54:50.202Z,5.30
2023-04-30T14:59:55.528Z,4.00
2023-04-30T15:04:58.263Z,7.17
2023-04-30T15:10:01.146Z,6.30
2023-04-30T15:15:05.111Z,4.83
2023-04-30T15:20:09.107Z,3.70
2023-04-30T15:25:11.626Z,3.30
2023-04-30T15:30:14.082Z,3.53
2023-04-30T15:35:16.499Z,2.90
2023-04-30T15:40:18.824Z,4.30
2023-04-30T15:45:22.462Z,3.90
2023-04-30T15:50:25.042Z,4.43
2023-04-30T15:55:27.490Z,26.63
2023-04-30T16:00:30.603Z,17.07
2023-04-30T16:05:35.321Z,13.90
2023-04-30T16:10:38.260Z,14.63
2023-04-30T16:15:40.601Z,6.60
2023-04-30T16:20:45.096Z,4.50
2023-04-30T16:25:47.528Z,4.33
2023-04-30T16:30:53.287Z,3.57
2023-04-30T16:35:55.696Z,3.40
2023-04-30T16:40:58.489Z,3.73
2023-04-30T16:46:01.038Z,3.77
2023-04-30T16:51:04.038Z,3.60
2023-04-30T16:56:06.701Z,3.43
2023-04-30T17:01:09.720Z,3.37
2023-04-30T17:06:14.583Z,3.97
2023-04-30T17:11:20.858Z,3.50
2023-04-30T17:16:23.770Z,3.60
2023-04-30T17:21:30.132Z,3.80
2023-04-30T17:26:32.586Z,4.00
2023-04-30T17:31:35.091Z,4.10
2023-04-30T17:36:37.809Z,4.13
2023-04-30T17:41:40.210Z,2.93
2023-04-30T17:46:42.714Z,3.20
2023-04-30T17:51:48.658Z,3.80
2023-04-30T17:56:53.463Z,3.60
2023-04-30T18:01:56.432Z,4.07
2023-04-30T18:06:58.891Z,6.87
2023-04-30T18:12:01.327Z,4.37
2023-04-30T18:17:04.051Z,4.13
2023-04-30T18:22:09.009Z,4.00
2023-04-30T18:27:11.917Z,4.03
2023-04-30T18:32:15.060Z,4.40
2023-04-30T18:37:21.333Z,4.00
2023-04-30T18:42:26.149Z,4.43
2023-04-30T18:47:30.840Z,4.30
2023-04-30T18:52:33.854Z,4.87
2023-04-30T18:57:36.401Z,3.30
2023-04-30T19:02:38.904Z,3.03
2023-04-30T19:07:42.675Z,3.43
2023-04-30T19:12:45.254Z,3.30
2023-04-30T19:17:47.963Z,5.77
2023-04-30T19:22:50.532Z,4.80
2023-04-30T19:27:52.988Z,5.27
2023-04-30T19:32:55.527Z,4.50
2023-04-30T19:37:58.062Z,4.33
2023-04-30T19:43:00.429Z,4.57
2023-04-30T19:48:02.857Z,5.00
2023-04-30T19:53:05.358Z,4.70
2023-04-30T19:58:07.934Z,4.40
2023-04-30T20:03:10.468Z,4.73
2023-04-30T20:08:13.039Z,4.23
2023-04-30T20:13:16.242Z,3.30
2023-04-30T20:18:21.140Z,2.93
2023-04-30T20:23:23.722Z,3.03
2023-04-30T20:28:26.109Z,2.77
2023-04-30T20:33:29.263Z,2.50
2023-04-30T20:38:31.648Z,3.27
2023-04-30T20:43:34.262Z,3.53
2023-04-30T20:48:36.675Z,3.63
2023-04-30T20:53:39.025Z,3.07
2023-04-30T20:58:43.214Z,3.23
2023-04-30T21:03:45.613Z,3.97
2023-04-30T21:08:49.008Z,4.53
2023-04-30T21:13:51.550Z,4.20
2023-04-30T21:18:54.004Z,4.63
2023-04-30T21:23:56.436Z,5.10
2023-04-30T21:28:58.733Z,5.23
2023-04-30T21:34:01.116Z,5.00
2023-04-30T21:39:04.401Z,4.67
2023-04-30T21:44:06.793Z,3.70
2023-04-30T21:49:10.204Z,3.37
2023-04-30T21:54:13.042Z,3.70
2023-04-30T21:59:15.539Z,3.10
2023-04-30T22:04:18.184Z,3.43
2023-04-30T22:09:20.890Z,3.83
2023-04-30T22:14:23.668Z,3.67
2023-04-30T22:19:26.015Z,3.33
2023-04-30T22:24:28.471Z,3.37
2023-04-30T22:29:31.115Z,3.37
2023-04-30T22:34:40.594Z,3.37
2023-04-30T22:39:43.277Z,3.80
2023-04-30T22:44:46.226Z,4.40
2023-04-30T22:49:48.729Z,3.47
2023-04-30T22:54:51.193Z,4.50
2023-04-30T22:59:53.776Z,4.07
2023-04-30T23:04:56.446Z,3.90
2023-04-30T23:09:59.037Z,4.20
2023-04-30T23:15:02.378Z,4.20
2023-04-30T23:20:08.231Z,3.70
2023-04-30T23:25:10.621Z,4.33
2023-04-30T23:30:13.289Z,4.40
2023-04-30T23:35:15.719Z,4.20
2023-04-30T23:40:20.063Z,3.97
2023-04-30T23:45:22.743Z,3.87
2023-04-30T23:50:25.256Z,3.90
2023-04-30T23:55:27.786Z,3.10
